Current Weather

Baghdad Intl Airport

Baghdad Intl Airport, Iraq (ORBI)

Report from: Tuesday, August 16, 2022 8:00 AM UTC
Current time: Tuesday, August 16, 2022 8:10 AM UTC

Nearby weather
Weather history
Weather forecast

Temperature40.0°C (104.0°F)
Heat index39.1°C (102.4°F)
Dew point12.0°C (53.6°F)
Winds 17 kts (8.7 m/s, 19.6 mph) Northwest (310°)
Visibility4.3 mi. (7 km)
Altimeter29.62 in.Hg (1003 mB)
Relative humidity19 %
Density altitude3,349 ft. (1,021 m)
Remarks No significant changes expected in the next two hours
Flight conditions Marginal Visual Meteorological Conditions
Raw dataORBI 160800Z 31017KT 7000 NSC 40/12 Q1003 NOSIG
An error has occurred. This application may no longer respond until reloaded. Reload 🗙